sensor_id;sensor_type;location;lat;lon;timestamp;pressure;altitude;pressure_sealevel;temperature;humidity
15694;BME280;7947;48.834;9.132;2023-05-08T00:01:23;98437.69;;;16.10;100.00
15694;BME280;7947;48.834;9.132;2023-05-08T00:04:29;98436.41;;;16.08;100.00
15694;BME280;7947;48.834;9.132;2023-05-08T00:07:34;98438.50;;;16.11;100.00
15694;BME280;7947;48.834;9.132;2023-05-08T00:10:37;98431.81;;;16.08;100.00
15694;BME280;7947;48.834;9.132;2023-05-08T00:13:40;98435.91;;;16.06;100.00
15694;BME280;7947;48.834;9.132;2023-05-08T00:16:43;98437.63;;;16.02;100.00
15694;BME280;7947;48.834;9.132;2023-05-08T00:19:46;98438.69;;;16.01;100.00
15694;BME280;7947;48.834;9.132;2023-05-08T00:22:50;98443.84;;;16.02;100.00
15694;BME280;7947;48.834;9.132;2023-05-08T00:25:52;98447.63;;;16.01;100.00
15694;BME280;7947;48.834;9.132;2023-05-08T00:28:55;98446.53;;;16.02;100.00
15694;BME280;7947;48.834;9.132;2023-05-08T00:31:58;98446.31;;;15.99;100.00
15694;BME280;7947;48.834;9.132;2023-05-08T00:35:01;98447.13;;;15.99;100.00
15694;BME280;7947;48.834;9.132;2023-05-08T00:38:05;98441.13;;;16.02;100.00
15694;BME280;7947;48.834;9.132;2023-05-08T00:41:08;98449.44;;;16.06;100.00
15694;BME280;7947;48.834;9.132;2023-05-08T00:44:11;98444.84;;;16.06;100.00
15694;BME280;7947;48.834;9.132;2023-05-08T00:47:14;98446.41;;;16.07;100.00
15694;BME280;7947;48.834;9.132;2023-05-08T00:50:17;98449.63;;;16.09;100.00
15694;BME280;7947;48.834;9.132;2023-05-08T00:53:22;98454.22;;;16.09;100.00
15694;BME280;7947;48.834;9.132;2023-05-08T00:56:27;98448.81;;;16.09;100.00
15694;BME280;7947;48.834;9.132;2023-05-08T00:59:29;98452.94;;;16.06;100.00
15694;BME280;7947;48.834;9.132;2023-05-08T01:02:32;98458.94;;;16.03;100.00
15694;BME280;7947;48.834;9.132;2023-05-08T01:05:36;98459.84;;;15.99;100.00
15694;BME280;7947;48.834;9.132;2023-05-08T01:08:42;98462.25;;;16.00;100.00
15694;BME280;7947;48.834;9.132;2023-05-08T01:11:49;98457.44;;;15.97;100.00
15694;BME280;7947;48.834;9.132;2023-05-08T01:15:03;98462.84;;;15.97;100.00
15694;BME280;7947;48.834;9.132;2023-05-08T01:18:12;98454.16;;;16.00;100.00
15694;BME280;7947;48.834;9.132;2023-05-08T01:21:22;98457.34;;;16.02;100.00
15694;BME280;7947;48.834;9.132;2023-05-08T01:24:53;98459.56;;;16.00;100.00
15694;BME280;7947;48.834;9.132;2023-05-08T01:35:02;98460.25;;;15.92;100.00
15694;BME280;7947;48.834;9.132;2023-05-08T01:38:14;98463.56;;;15.89;100.00
15694;BME280;7947;48.834;9.132;2023-05-08T01:41:24;98463.56;;;15.89;100.00
15694;BME280;7947;48.834;9.132;2023-05-08T01:44:34;98462.16;;;15.92;100.00
15694;BME280;7947;48.834;9.132;2023-05-08T01:47:37;98458.88;;;15.95;100.00
15694;BME280;7947;48.834;9.132;2023-05-08T01:50:45;98469.97;;;15.93;100.00
15694;BME280;7947;48.834;9.132;2023-05-08T01:53:54;98471.88;;;15.93;100.00
15694;BME280;7947;48.834;9.132;2023-05-08T01:56:58;98471.88;;;15.93;100.00
15694;BME280;7947;48.834;9.132;2023-05-08T02:00:04;98474.09;;;15.91;100.00
15694;BME280;7947;48.834;9.132;2023-05-08T02:03:09;98471.09;;;15.92;100.00
15694;BME280;7947;48.834;9.132;2023-05-08T02:06:20;98476.28;;;15.89;100.00
15694;BME280;7947;48.834;9.132;2023-05-08T02:09:24;98471.16;;;15.87;100.00
15694;BME280;7947;48.834;9.132;2023-05-08T02:12:27;98467.97;;;15.85;100.00
15694;BME280;7947;48.834;9.132;2023-05-08T02:15:31;98475.28;;;15.85;100.00
15694;BME280;7947;48.834;9.132;2023-05-08T02:18:38;98474.47;;;15.84;100.00
15694;BME280;7947;48.834;9.132;2023-05-08T02:21:44;98475.69;;;15.78;100.00
15694;BME280;7947;48.834;9.132;2023-05-08T02:24:47;98474.38;;;15.76;100.00
15694;BME280;7947;48.834;9.132;2023-05-08T02:27:54;98475.78;;;15.73;100.00
15694;BME280;7947;48.834;9.132;2023-05-08T02:30:57;98474.16;;;15.72;100.00
15694;BME280;7947;48.834;9.132;2023-05-08T02:34:02;98481.19;;;15.73;100.00
15694;BME280;7947;48.834;9.132;2023-05-08T02:37:09;98480.69;;;15.71;100.00
15694;BME280;7947;48.834;9.132;2023-05-08T02:40:13;98479.25;;;15.74;100.00
15694;BME280;7947;48.834;9.132;2023-05-08T02:43:16;98482.78;;;15.74;100.00
15694;BME280;7947;48.834;9.132;2023-05-08T02:46:23;98478.69;;;15.77;100.00
15694;BME280;7947;48.834;9.132;2023-05-08T02:49:31;98481.97;;;15.74;100.00
15694;BME280;7947;48.834;9.132;2023-05-08T02:52:42;98485.47;;;15.74;100.00
15694;BME280;7947;48.834;9.132;2023-05-08T02:55:48;98481.69;;;15.75;100.00
15694;BME280;7947;48.834;9.132;2023-05-08T02:58:58;98494.09;;;15.76;100.00
15694;BME280;7947;48.834;9.132;2023-05-08T03:02:05;98484.69;;;15.74;100.00
15694;BME280;7947;48.834;9.132;2023-05-08T03:05:15;98486.28;;;15.75;100.00
15694;BME280;7947;48.834;9.132;2023-05-08T03:08:24;98477.38;;;15.74;100.00
15694;BME280;7947;48.834;9.132;2023-05-08T03:11:32;98474.66;;;15.74;100.00
15694;BME280;7947;48.834;9.132;2023-05-08T03:14:42;98478.69;;;15.77;100.00
15694;BME280;7947;48.834;9.132;2023-05-08T03:17:47;98471.88;;;15.79;100.00
15694;BME280;7947;48.834;9.132;2023-05-08T03:20:54;98471.28;;;15.82;100.00
15694;BME280;7947;48.834;9.132;2023-05-08T03:24:01;98477.50;;;15.83;100.00
15694;BME280;7947;48.834;9.132;2023-05-08T03:27:06;98473.78;;;15.79;100.00
15694;BME280;7947;48.834;9.132;2023-05-08T03:30:11;98472.16;;;15.78;100.00
15694;BME280;7947;48.834;9.132;2023-05-08T03:33:15;98474.38;;;15.76;100.00
15694;BME280;7947;48.834;9.132;2023-05-08T03:36:19;98474.66;;;15.74;100.00
15694;BME280;7947;48.834;9.132;2023-05-08T03:39:25;98475.78;;;15.73;100.00
15694;BME280;7947;48.834;9.132;2023-05-08T03:42:30;98468.75;;;15.72;100.00
15694;BME280;7947;48.834;9.132;2023-05-08T03:45:34;98477.38;;;15.74;100.00
15694;BME280;7947;48.834;9.132;2023-05-08T03:48:37;98474.66;;;15.74;100.00
15694;BME280;7947;48.834;9.132;2023-05-08T03:51:42;98476.66;;;15.69;100.00
15694;BME280;7947;48.834;9.132;2023-05-08T03:54:46;98478.88;;;15.67;100.00
15694;BME280;7947;48.834;9.132;2023-05-08T03:57:54;98482.69;;;15.66;100.00
15694;BME280;7947;48.834;9.132;2023-05-08T04:01:04;98479.19;;;15.65;100.00
15694;BME280;7947;48.834;9.132;2023-05-08T04:04:15;98482.97;;;15.64;100.00
15694;BME280;7947;48.834;9.132;2023-05-08T04:07:25;98485.16;;;15.62;100.00
15694;BME280;7947;48.834;9.132;2023-05-08T04:10:32;98486.28;;;15.61;100.00
15694;BME280;7947;48.834;9.132;2023-05-08T04:13:44;98480.88;;;15.61;100.00
15694;BME280;7947;48.834;9.132;2023-05-08T04:16:49;98487.88;;;15.62;100.00
15694;BME280;7947;48.834;9.132;2023-05-08T04:19:58;98492.25;;;15.58;100.00
15694;BME280;7947;48.834;9.132;2023-05-08T04:23:02;98498.97;;;15.61;100.00
15694;BME280;7947;48.834;9.132;2023-05-08T04:26:07;98504.91;;;15.63;100.00
15694;BME280;7947;48.834;9.132;2023-05-08T04:29:12;98505.72;;;15.63;100.00
15694;BME280;7947;48.834;9.132;2023-05-08T04:32:15;98506.53;;;15.64;100.00
15694;BME280;7947;48.834;9.132;2023-05-08T04:35:18;98511.31;;;15.67;100.00
15694;BME280;7947;48.834;9.132;2023-05-08T04:38:21;98509.94;;;15.69;100.00
15694;BME280;7947;48.834;9.132;2023-05-08T04:41:25;98512.13;;;15.67;100.00
15694;BME280;7947;48.834;9.132;2023-05-08T04:44:28;98507.28;;;15.64;100.00
15694;BME280;7947;48.834;9.132;2023-05-08T04:47:32;98514.63;;;15.64;100.00
15694;BME280;7947;48.834;9.132;2023-05-08T04:50:35;98517.53;;;15.67;100.00
15694;BME280;7947;48.834;9.132;2023-05-08T04:53:38;98511.50;;;15.70;100.00
15694;BME280;7947;48.834;9.132;2023-05-08T04:56:42;98516.53;;;15.77;100.00
15694;BME280;7947;48.834;9.132;2023-05-08T04:59:45;98523.28;;;15.79;100.00
15694;BME280;7947;48.834;9.132;2023-05-08T05:02:47;98519.94;;;15.82;100.00
15694;BME280;7947;48.834;9.132;2023-05-08T05:05:56;98523.47;;;15.83;100.00
15694;BME280;7947;48.834;9.132;2023-05-08T05:08:59;98523.38;;;15.88;100.00
15694;BME280;7947;48.834;9.132;2023-05-08T05:12:03;98528.25;;;15.86;100.00
15694;BME280;7947;48.834;9.132;2023-05-08T05:15:07;98527.44;;;15.85;100.00
15694;BME280;7947;48.834;9.132;2023-05-08T05:18:11;98537.19;;;15.86;100.00
15694;BME280;7947;48.834;9.132;2023-05-08T05:21:13;98530.97;;;15.86;100.00
15694;BME280;7947;48.834;9.132;2023-05-08T05:24:16;98538.56;;;15.84;100.00
15694;BME280;7947;48.834;9.132;2023-05-08T05:27:21;98540.19;;;15.85;100.00
15694;BME280;7947;48.834;9.132;2023-05-08T05:30:24;98544.50;;;15.86;100.00
15694;BME280;7947;48.834;9.132;2023-05-08T05:33:27;98537.50;;;15.85;100.00
15694;BME280;7947;48.834;9.132;2023-05-08T05:36:29;98540.97;;;15.85;100.00
15694;BME280;7947;48.834;9.132;2023-05-08T05:39:32;98543.41;;;15.87;100.00
15694;BME280;7947;48.834;9.132;2023-05-08T05:42:37;98547.91;;;15.91;100.00
15694;BME280;7947;48.834;9.132;2023-05-08T05:45:40;98546.00;;;15.92;100.00
15694;BME280;7947;48.834;9.132;2023-05-08T05:48:43;98548.91;;;15.95;100.00
15694;BME280;7947;48.834;9.132;2023-05-08T05:51:45;98551.03;;;15.98;100.00
15694;BME280;7947;48.834;9.132;2023-05-08T05:54:48;98555.03;;;16.01;100.00
15694;BME280;7947;48.834;9.132;2023-05-08T05:57:52;98553.94;;;16.02;100.00
15694;BME280;7947;48.834;9.132;2023-05-08T06:00:57;98554.44;;;16.04;100.00
15694;BME280;7947;48.834;9.132;2023-05-08T06:04:01;98554.13;;;16.05;100.00
15694;BME280;7947;48.834;9.132;2023-05-08T06:07:05;98551.13;;;16.07;100.00
15694;BME280;7947;48.834;9.132;2023-05-08T06:10:08;98548.72;;;16.05;100.00
15694;BME280;7947;48.834;9.132;2023-05-08T06:13:12;98556.53;;;16.07;100.00
15694;BME280;7947;48.834;9.132;2023-05-08T06:16:15;98553.06;;;16.06;100.00
15694;BME280;7947;48.834;9.132;2023-05-08T06:19:18;98555.75;;;16.06;100.00
15694;BME280;7947;48.834;9.132;2023-05-08T06:22:21;98558.97;;;16.08;100.00
15694;BME280;7947;48.834;9.132;2023-05-08T06:25:24;98561.69;;;16.08;100.00
15694;BME280;7947;48.834;9.132;2023-05-08T06:28:30;98562.44;;;16.09;100.00
15694;BME280;7947;48.834;9.132;2023-05-08T06:31:32;98559.66;;;16.14;100.00
15694;BME280;7947;48.834;9.132;2023-05-08T06:34:35;98567.78;;;16.14;100.00
15694;BME280;7947;48.834;9.132;2023-05-08T06:37:38;98568.38;;;16.11;100.00
15694;BME280;7947;48.834;9.132;2023-05-08T06:40:41;98563.56;;;16.08;100.00
15694;BME280;7947;48.834;9.132;2023-05-08T06:43:46;98572.78;;;16.07;100.00
15694;BME280;7947;48.834;9.132;2023-05-08T06:46:49;98565.78;;;16.06;100.00
15694;BME280;7947;48.834;9.132;2023-05-08T06:49:52;98572.28;;;16.05;100.00
15694;BME280;7947;48.834;9.132;2023-05-08T06:52:55;98569.88;;;16.03;100.00
15694;BME280;7947;48.834;9.132;2023-05-08T06:55:58;98574.78;;;16.01;100.00
15694;BME280;7947;48.834;9.132;2023-05-08T06:59:02;98573.47;;;15.99;100.00
15694;BME280;7947;48.834;9.132;2023-05-08T07:02:10;98570.75;;;15.99;100.00
15694;BME280;7947;48.834;9.132;2023-05-08T07:05:13;98568.84;;;15.99;100.00
15694;BME280;7947;48.834;9.132;2023-05-08T07:08:16;98573.19;;;16.00;100.00
15694;BME280;7947;48.834;9.132;2023-05-08T07:11:19;98572.06;;;16.01;100.00
15694;BME280;7947;48.834;9.132;2023-05-08T07:14:23;98579.88;;;16.03;100.00
15694;BME280;7947;48.834;9.132;2023-05-08T07:17:25;98579.19;;;15.97;100.00
15694;BME280;7947;48.834;9.132;2023-05-08T07:20:28;98584.88;;;15.96;100.00
15694;BME280;7947;48.834;9.132;2023-05-08T07:23:31;98584.28;;;15.99;100.00
15694;BME280;7947;48.834;9.132;2023-05-08T07:26:34;98584.00;;;16.00;100.00
15694;BME280;7947;48.834;9.132;2023-05-08T07:29:38;98580.38;;;16.05;100.00
15694;BME280;7947;48.834;9.132;2023-05-08T07:32:41;98582.19;;;16.09;100.00
15694;BME280;7947;48.834;9.132;2023-05-08T07:35:44;98580.81;;;16.12;100.00
15694;BME280;7947;48.834;9.132;2023-05-08T07:38:47;98582.72;;;16.11;100.00
15694;BME280;7947;48.834;9.132;2023-05-08T07:41:50;98579.91;;;16.16;100.00
15694;BME280;7947;48.834;9.132;2023-05-08T07:44:54;98588.00;;;16.16;100.00
15694;BME280;7947;48.834;9.132;2023-05-08T07:47:57;98585.09;;;16.13;100.00
15694;BME280;7947;48.834;9.132;2023-05-08T07:51:00;98582.59;;;16.16;100.00
15694;BME280;7947;48.834;9.132;2023-05-08T07:54:03;98591.16;;;16.23;100.00
15694;BME280;7947;48.834;9.132;2023-05-08T07:57:06;98595.13;;;16.26;100.00
15694;BME280;7947;48.834;9.132;2023-05-08T08:00:12;98592.34;;;16.31;100.00
15694;BME280;7947;48.834;9.132;2023-05-08T08:03:15;98594.94;;;16.36;100.00
15694;BME280;7947;48.834;9.132;2023-05-08T08:06:18;98594.94;;;16.36;100.00
15694;BME280;7947;48.834;9.132;2023-05-08T08:09:21;98596.38;;;16.34;100.00
15694;BME280;7947;48.834;9.132;2023-05-08T08:12:24;98594.44;;;16.34;100.00
15694;BME280;7947;48.834;9.132;2023-05-08T08:15:28;98601.66;;;16.39;100.00
15694;BME280;7947;48.834;9.132;2023-05-08T08:18:33;98596.16;;;16.44;100.00
15694;BME280;7947;48.834;9.132;2023-05-08T08:21:41;98596.66;;;16.46;100.00
15694;BME280;7947;48.834;9.132;2023-05-08T08:24:44;98599.59;;;16.49;100.00
15694;BME280;7947;48.834;9.132;2023-05-08T08:27:46;98602.00;;;16.51;100.00
15694;BME280;7947;48.834;9.132;2023-05-08T08:30:50;98596.88;;;16.49;100.00
15694;BME280;7947;48.834;9.132;2023-05-08T08:33:53;98606.13;;;16.48;100.00
15694;BME280;7947;48.834;9.132;2023-05-08T08:36:57;98610.69;;;16.48;100.00
15694;BME280;7947;48.834;9.132;2023-05-08T08:39:59;98604.78;;;16.46;100.00
15694;BME280;7947;48.834;9.132;2023-05-08T08:43:02;98601.88;;;16.42;100.00
15694;BME280;7947;48.834;9.132;2023-05-08T08:46:10;98598.66;;;16.40;100.00
15694;BME280;7947;48.834;9.132;2023-05-08T08:49:17;98600.34;;;16.36;100.00
15694;BME280;7947;48.834;9.132;2023-05-08T08:52:25;98606.38;;;16.33;100.00
15694;BME280;7947;48.834;9.132;2023-05-08T08:55:32;98605.56;;;16.33;100.00
15694;BME280;7947;48.834;9.132;2023-05-08T08:58:43;98610.69;;;16.34;100.00
15694;BME280;7947;48.834;9.132;2023-05-08T09:01:55;98612.38;;;16.30;100.00
15694;BME280;7947;48.834;9.132;2023-05-08T09:04:58;98618.59;;;16.31;100.00
15694;BME280;7947;48.834;9.132;2023-05-08T09:08:01;98613.81;;;16.27;100.00
15694;BME280;7947;48.834;9.132;2023-05-08T09:11:04;98611.59;;;16.30;100.00
15694;BME280;7947;48.834;9.132;2023-05-08T09:14:07;98613.81;;;16.27;100.00
15694;BME280;7947;48.834;9.132;2023-05-08T09:17:11;98612.19;;;16.26;100.00
15694;BME280;7947;48.834;9.132;2023-05-08T09:20:14;98609.69;;;16.30;100.00
15694;BME280;7947;48.834;9.132;2023-05-08T09:23:17;98610.59;;;16.39;100.00
15694;BME280;7947;48.834;9.132;2023-05-08T09:26:27;98612.88;;;16.46;100.00
15694;BME280;7947;48.834;9.132;2023-05-08T09:29:32;98620.16;;;16.50;100.00
15694;BME280;7947;48.834;9.132;2023-05-08T09:32:37;98610.22;;;16.59;100.00
15694;BME280;7947;48.834;9.132;2023-05-08T09:35:41;98613.03;;;16.68;100.00
15694;BME280;7947;48.834;9.132;2023-05-08T09:38:44;98612.91;;;16.73;100.00
15694;BME280;7947;48.834;9.132;2023-05-08T09:41:56;98618.44;;;16.68;99.98
15694;BME280;7947;48.834;9.132;2023-05-08T09:44:59;98612.13;;;16.72;100.00
15694;BME280;7947;48.834;9.132;2023-05-08T09:48:04;98607.91;;;16.80;100.00
15694;BME280;7947;48.834;9.132;2023-05-08T09:51:07;98606.41;;;16.87;100.00
15694;BME280;7947;48.834;9.132;2023-05-08T09:54:16;98620.63;;;16.93;100.00
15694;BME280;7947;48.834;9.132;2023-05-08T09:57:19;98622.03;;;16.90;99.32
15694;BME280;7947;48.834;9.132;2023-05-08T10:00:23;98615.53;;;16.91;99.89
15694;BME280;7947;48.834;9.132;2023-05-08T10:03:44;98621.22;;;16.90;100.00
15694;BME280;7947;48.834;9.132;2023-05-08T10:06:55;98622.22;;;16.94;100.00
15694;BME280;7947;48.834;9.132;2023-05-08T10:10:00;98617.03;;;16.97;100.00
15694;BME280;7947;48.834;9.132;2023-05-08T10:13:03;98619.19;;;17.09;100.00
15694;BME280;7947;48.834;9.132;2023-05-08T10:16:06;98627.72;;;17.16;100.00
15694;BME280;7947;48.834;9.132;2023-05-08T10:19:13;98627.97;;;17.28;100.00
15694;BME280;7947;48.834;9.132;2023-05-08T10:22:17;98620.00;;;17.45;100.00
15694;BME280;7947;48.834;9.132;2023-05-08T10:25:22;98610.91;;;17.63;100.00
15694;BME280;7947;48.834;9.132;2023-05-08T10:28:31;98615.22;;;17.86;99.50
15694;BME280;7947;48.834;9.132;2023-05-08T10:31:35;98615.44;;;17.98;97.27
15694;BME280;7947;48.834;9.132;2023-05-08T10:34:40;98617.00;;;18.22;98.37
15694;BME280;7947;48.834;9.132;2023-05-08T10:37:45;98616.78;;;18.40;97.97
15694;BME280;7947;48.834;9.132;2023-05-08T10:40:49;98615.41;;;18.51;96.46
15694;BME280;7947;48.834;9.132;2023-05-08T10:43:58;98611.25;;;18.54;94.39
15694;BME280;7947;48.834;9.132;2023-05-08T10:47:09;98619.84;;;18.47;93.97
15694;BME280;7947;48.834;9.132;2023-05-08T10:50:27;98609.94;;;18.43;93.76
15694;BME280;7947;48.834;9.132;2023-05-08T10:53:36;98603.41;;;18.44;94.61
15694;BME280;7947;48.834;9.132;2023-05-08T10:56:41;98599.88;;;18.43;94.78
15694;BME280;7947;48.834;9.132;2023-05-08T10:59:44;98601.78;;;18.43;95.37
15694;BME280;7947;48.834;9.132;2023-05-08T11:02:48;98601.91;;;18.38;95.12
15694;BME280;7947;48.834;9.132;2023-05-08T11:05:54;98605.19;;;18.26;95.02
15694;BME280;7947;48.834;9.132;2023-05-08T11:08:57;98604.53;;;18.21;94.73
15694;BME280;7947;48.834;9.132;2023-05-08T11:12:06;98605.94;;;18.10;95.34
15694;BME280;7947;48.834;9.132;2023-05-08T11:15:09;98601.56;;;18.00;95.83
15694;BME280;7947;48.834;9.132;2023-05-08T11:18:15;98602.81;;;17.94;96.28
15694;BME280;7947;48.834;9.132;2023-05-08T11:21:20;98605.63;;;17.89;94.83
15694;BME280;7947;48.834;9.132;2023-05-08T11:24:32;98596.22;;;17.86;95.32
15694;BME280;7947;48.834;9.132;2023-05-08T11:27:38;98593.19;;;17.88;95.92
15694;BME280;7947;48.834;9.132;2023-05-08T11:30:43;98589.66;;;17.87;95.42
15694;BME280;7947;48.834;9.132;2023-05-08T11:33:46;98591.28;;;17.88;94.62
15694;BME280;7947;48.834;9.132;2023-05-08T11:37:01;98590.47;;;17.88;93.99
15694;BME280;7947;48.834;9.132;2023-05-08T11:44:16;98584.41;;;17.91;95.60
15694;BME280;7947;48.834;9.132;2023-05-08T11:47:20;98587.63;;;17.93;95.16
15694;BME280;7947;48.834;9.132;2023-05-08T11:50:25;98583.34;;;18.00;95.32
15694;BME280;7947;48.834;9.132;2023-05-08T11:53:30;98576.38;;;18.08;94.53
15694;BME280;7947;48.834;9.132;2023-05-08T11:56:33;98579.47;;;18.24;94.21
15694;BME280;7947;48.834;9.132;2023-05-08T11:59:36;98577.59;;;18.33;93.16
15694;BME280;7947;48.834;9.132;2023-05-08T12:02:40;98574.00;;;18.46;93.73
15694;BME280;7947;48.834;9.132;2023-05-08T12:05:44;98578.22;;;18.69;93.55
15694;BME280;7947;48.834;9.132;2023-05-08T12:08:48;98577.00;;;18.92;92.07
15694;BME280;7947;48.834;9.132;2023-05-08T12:11:55;98573.50;;;19.00;87.13
15694;BME280;7947;48.834;9.132;2023-05-08T12:14:59;98580.53;;;19.10;85.62
15694;BME280;7947;48.834;9.132;2023-05-08T12:18:02;98580.34;;;19.15;84.58
15694;BME280;7947;48.834;9.132;2023-05-08T12:21:04;98581.66;;;19.17;83.95
15694;BME280;7947;48.834;9.132;2023-05-08T12:24:10;98573.16;;;19.19;83.56
15694;BME280;7947;48.834;9.132;2023-05-08T12:27:12;98575.06;;;19.18;84.19
15694;BME280;7947;48.834;9.132;2023-05-08T12:30:15;98580.84;;;19.08;83.74
15694;BME280;7947;48.834;9.132;2023-05-08T12:33:19;98576.69;;;19.11;87.99
15694;BME280;7947;48.834;9.132;2023-05-08T12:36:22;98578.56;;;18.93;89.53
15694;BME280;7947;48.834;9.132;2023-05-08T12:39:26;98580.00;;;18.82;90.73
15694;BME280;7947;48.834;9.132;2023-05-08T12:42:42;98582.53;;;18.70;92.01
15694;BME280;7947;48.834;9.132;2023-05-08T12:45:45;98579.63;;;18.58;92.93
15694;BME280;7947;48.834;9.132;2023-05-08T12:48:48;98573.25;;;18.54;94.47
15694;BME280;7947;48.834;9.132;2023-05-08T12:51:51;98571.63;;;18.53;94.20
15694;BME280;7947;48.834;9.132;2023-05-08T12:54:56;98581.03;;;18.47;94.50
15694;BME280;7947;48.834;9.132;2023-05-08T12:58:00;98579.50;;;18.32;95.15
15694;BME280;7947;48.834;9.132;2023-05-08T13:01:05;98581.41;;;18.23;95.80
15694;BME280;7947;48.834;9.132;2023-05-08T13:04:10;98575.94;;;18.15;95.88
15694;BME280;7947;48.834;9.132;2023-05-08T13:07:13;98580.38;;;18.11;96.66
15694;BME280;7947;48.834;9.132;2023-05-08T13:10:18;98575.13;;;18.14;95.86
15694;BME280;7947;48.834;9.132;2023-05-08T13:13:25;98569.66;;;18.06;95.64
15694;BME280;7947;48.834;9.132;2023-05-08T13:16:28;98571.03;;;17.94;96.72
15694;BME280;7947;48.834;9.132;2023-05-08T13:19:31;98570.03;;;17.90;96.88
15694;BME280;7947;48.834;9.132;2023-05-08T13:22:34;98564.25;;;17.83;96.98
15694;BME280;7947;48.834;9.132;2023-05-08T13:25:39;98571.09;;;17.81;97.42
15694;BME280;7947;48.834;9.132;2023-05-08T13:28:42;98566.94;;;17.75;97.12
15694;BME280;7947;48.834;9.132;2023-05-08T13:31:44;98570.09;;;17.68;97.48
15694;BME280;7947;48.834;9.132;2023-05-08T13:34:47;98566.25;;;17.69;97.24
15694;BME280;7947;48.834;9.132;2023-05-08T13:37:54;98567.38;;;17.68;96.79
15694;BME280;7947;48.834;9.132;2023-05-08T13:40:59;98561.13;;;17.68;97.44
15694;BME280;7947;48.834;9.132;2023-05-08T13:44:02;98555.13;;;17.71;97.02
15694;BME280;7947;48.834;9.132;2023-05-08T13:47:04;98562.13;;;17.72;97.35
15694;BME280;7947;48.834;9.132;2023-05-08T13:50:08;98555.59;;;17.73;97.69
15694;BME280;7947;48.834;9.132;2023-05-08T13:53:11;98546.03;;;17.75;97.57
15694;BME280;7947;48.834;9.132;2023-05-08T13:56:15;98540.47;;;17.80;97.07
15694;BME280;7947;48.834;9.132;2023-05-08T13:59:18;98551.63;;;17.79;97.49
15694;BME280;7947;48.834;9.132;2023-05-08T14:02:21;98558.81;;;17.75;98.66
15694;BME280;7947;48.834;9.132;2023-05-08T14:05:24;98557.81;;;17.71;99.16
15694;BME280;7947;48.834;9.132;2023-05-08T14:08:27;98554.72;;;17.64;99.59
15694;BME280;7947;48.834;9.132;2023-05-08T14:11:32;98553.47;;;17.61;99.82
15694;BME280;7947;48.834;9.132;2023-05-08T14:14:35;98551.66;;;17.57;99.95
15694;BME280;7947;48.834;9.132;2023-05-08T14:17:38;98550.84;;;17.56;100.00
15694;BME280;7947;48.834;9.132;2023-05-08T14:20:40;98548.63;;;17.58;100.00
15694;BME280;7947;48.834;9.132;2023-05-08T14:23:49;98549.13;;;17.60;100.00
15694;BME280;7947;48.834;9.132;2023-05-08T14:26:53;98548.53;;;17.63;100.00
15694;BME280;7947;48.834;9.132;2023-05-08T14:29:56;98549.00;;;17.65;100.00
15694;BME280;7947;48.834;9.132;2023-05-08T14:32:59;98548.81;;;17.62;100.00
15694;BME280;7947;48.834;9.132;2023-05-08T14:36:02;98548.81;;;17.62;100.00
15694;BME280;7947;48.834;9.132;2023-05-08T14:39:04;98547.72;;;17.63;100.00
15694;BME280;7947;48.834;9.132;2023-05-08T14:42:08;98550.13;;;17.64;100.00
15694;BME280;7947;48.834;9.132;2023-05-08T14:45:22;98547.41;;;17.64;100.00
15694;BME280;7947;48.834;9.132;2023-05-08T14:48:25;98548.69;;;17.67;100.00
15694;BME280;7947;48.834;9.132;2023-05-08T14:51:28;98557.03;;;17.70;100.00
15694;BME280;7947;48.834;9.132;2023-05-08T14:54:32;98549.47;;;17.67;100.00
15694;BME280;7947;48.834;9.132;2023-05-08T14:57:36;98553.19;;;17.71;100.00
15694;BME280;7947;48.834;9.132;2023-05-08T15:00:39;98548.69;;;17.67;100.00
15694;BME280;7947;48.834;9.132;2023-05-08T15:03:42;98541.06;;;17.69;100.00
15694;BME280;7947;48.834;9.132;2023-05-08T15:06:47;98542.78;;;17.65;97.71
15694;BME280;7947;48.834;9.132;2023-05-08T15:09:50;98545.69;;;17.68;97.98
15694;BME280;7947;48.834;9.132;2023-05-08T15:12:54;98539.94;;;17.70;99.31
15694;BME280;7947;48.834;9.132;2023-05-08T15:15:57;98532.78;;;17.74;99.98
15694;BME280;7947;48.834;9.132;2023-05-08T15:19:00;98529.75;;;17.75;100.00
15694;BME280;7947;48.834;9.132;2023-05-08T15:22:03;98543.31;;;17.75;99.62
15694;BME280;7947;48.834;9.132;2023-05-08T15:25:06;98537.56;;;17.77;100.00
15694;BME280;7947;48.834;9.132;2023-05-08T15:28:10;98529.00;;;17.83;100.00
15694;BME280;7947;48.834;9.132;2023-05-08T15:31:13;98540.56;;;17.97;100.00
15694;BME280;7947;48.834;9.132;2023-05-08T15:34:16;98536.94;;;18.11;100.00
15694;BME280;7947;48.834;9.132;2023-05-08T15:37:19;98539.22;;;18.17;98.33
15694;BME280;7947;48.834;9.132;2023-05-08T15:40:22;98540.00;;;18.18;95.78
15694;BME280;7947;48.834;9.132;2023-05-08T15:43:26;98535.34;;;18.10;95.02
15694;BME280;7947;48.834;9.132;2023-05-08T15:46:29;98534.72;;;18.13;96.05
15694;BME280;7947;48.834;9.132;2023-05-08T15:49:31;98543.50;;;18.18;96.56
15694;BME280;7947;48.834;9.132;2023-05-08T15:52:34;98543.69;;;18.22;97.38
15694;BME280;7947;48.834;9.132;2023-05-08T15:55:37;98544.22;;;18.32;99.04
15694;BME280;7947;48.834;9.132;2023-05-08T15:58:41;98548.72;;;18.37;99.30
15694;BME280;7947;48.834;9.132;2023-05-08T16:01:44;98549.31;;;18.34;98.75
15694;BME280;7947;48.834;9.132;2023-05-08T16:04:47;98548.19;;;18.26;98.41
15694;BME280;7947;48.834;9.132;2023-05-08T16:07:50;98550.56;;;18.19;98.12
15694;BME280;7947;48.834;9.132;2023-05-08T16:10:54;98544.28;;;18.10;98.11
15694;BME280;7947;48.834;9.132;2023-05-08T16:13:58;98545.25;;;18.06;98.57
15694;BME280;7947;48.834;9.132;2023-05-08T16:17:02;98550.28;;;17.98;99.63
15694;BME280;7947;48.834;9.132;2023-05-08T16:20:09;98545.00;;;17.93;99.50
15694;BME280;7947;48.834;9.132;2023-05-08T16:23:12;98554.44;;;17.96;99.47
15694;BME280;7947;48.834;9.132;2023-05-08T16:26:15;98548.34;;;17.90;99.42
15694;BME280;7947;48.834;9.132;2023-05-08T16:29:19;98559.34;;;17.85;99.90
15694;BME280;7947;48.834;9.132;2023-05-08T16:32:22;98564.41;;;17.78;100.00